createdAt,value
2023-05-06T00:01:53.639Z,12.04
2023-05-06T00:04:20.387Z,12.03
2023-05-06T00:06:47.191Z,12.00
2023-05-06T00:09:13.877Z,11.96
2023-05-06T00:11:40.565Z,11.97
2023-05-06T00:14:06.981Z,12.01
2023-05-06T00:16:33.594Z,12.00
2023-05-06T00:19:00.160Z,11.98
2023-05-06T00:21:27.372Z,11.96
2023-05-06T00:23:53.847Z,11.96
2023-05-06T00:26:20.430Z,11.92
2023-05-06T00:28:46.897Z,11.90
2023-05-06T00:31:13.682Z,11.92
2023-05-06T00:33:41.266Z,11.95
2023-05-06T00:36:07.998Z,11.94
2023-05-06T00:38:34.446Z,11.90
2023-05-06T00:41:01.568Z,11.87
2023-05-06T00:43:28.024Z,11.87
2023-05-06T00:45:54.578Z,11.76
2023-05-06T00:48:21.550Z,11.68
2023-05-06T00:50:48.078Z,11.60
2023-05-06T00:53:14.756Z,11.54
2023-05-06T00:55:41.704Z,11.47
2023-05-06T00:58:08.709Z,11.47
2023-05-06T01:00:35.548Z,11.46
2023-05-06T01:03:02.266Z,11.39
2023-05-06T01:05:35.761Z,11.44
2023-05-06T01:08:17.708Z,11.42
2023-05-06T01:10:55.253Z,11.39
2023-05-06T01:13:34.305Z,11.43
2023-05-06T01:16:02.125Z,11.50
2023-05-06T01:18:31.657Z,11.52
2023-05-06T01:20:59.682Z,11.55
2023-05-06T01:23:26.807Z,11.55
2023-05-06T01:25:53.235Z,11.57
2023-05-06T01:28:19.757Z,11.55
2023-05-06T01:30:49.098Z,11.58
2023-05-06T01:33:20.650Z,11.54
2023-05-06T01:35:59.949Z,11.53
2023-05-06T01:38:44.498Z,11.56
2023-05-06T01:41:16.089Z,11.52
2023-05-06T01:43:45.274Z,11.56
2023-05-06T01:46:15.933Z,11.47
2023-05-06T01:48:44.382Z,11.49
2023-05-06T01:51:10.809Z,11.50
2023-05-06T01:53:37.233Z,11.49
2023-05-06T01:56:03.836Z,11.49
2023-05-06T01:58:30.420Z,11.47
2023-05-06T02:00:56.883Z,11.45
2023-05-06T02:03:23.348Z,11.44
2023-05-06T02:05:50.158Z,11.30
2023-05-06T02:08:16.796Z,11.30
2023-05-06T02:10:45.255Z,11.21
2023-05-06T02:13:11.867Z,11.18
2023-05-06T02:15:38.571Z,11.16
2023-05-06T02:18:07.059Z,11.20
2023-05-06T02:20:34.572Z,11.15
2023-05-06T02:23:00.987Z,11.03
2023-05-06T02:25:27.571Z,10.96
2023-05-06T02:27:54.081Z,10.91
2023-05-06T02:30:21.110Z,10.85
2023-05-06T02:32:48.121Z,10.81
2023-05-06T02:35:15.266Z,10.75
2023-05-06T02:37:42.806Z,10.72
2023-05-06T02:40:09.986Z,10.78
2023-05-06T02:42:36.440Z,10.75
2023-05-06T02:45:03.127Z,10.70
2023-05-06T02:47:31.962Z,10.64
2023-05-06T02:49:58.676Z,10.70
2023-05-06T02:52:25.229Z,10.64
2023-05-06T02:54:51.863Z,10.60
2023-05-06T02:57:18.462Z,10.52
2023-05-06T02:59:45.310Z,10.47
2023-05-06T03:02:11.809Z,10.44
2023-05-06T03:04:38.350Z,10.40
2023-05-06T03:07:04.864Z,10.42
2023-05-06T03:09:31.891Z,10.42
2023-05-06T03:11:58.396Z,10.37
2023-05-06T03:14:25.105Z,10.34
2023-05-06T03:16:51.826Z,10.34
2023-05-06T03:19:18.413Z,10.35
2023-05-06T03:21:45.345Z,10.30
2023-05-06T03:24:11.812Z,10.29
2023-05-06T03:26:38.997Z,10.28
2023-05-06T03:29:06.876Z,10.26
2023-05-06T03:31:34.311Z,10.25
2023-05-06T03:34:02.018Z,10.25
2023-05-06T03:36:29.412Z,10.31
2023-05-06T03:38:55.865Z,10.27
2023-05-06T03:41:24.200Z,10.19
2023-05-06T03:43:50.732Z,10.21
2023-05-06T03:46:22.161Z,10.25
2023-05-06T03:48:49.251Z,10.29
2023-05-06T03:51:18.242Z,10.31
2023-05-06T03:53:45.365Z,10.32
2023-05-06T03:56:11.831Z,10.38
2023-05-06T03:58:38.573Z,10.40
2023-05-06T04:01:07.704Z,10.46
2023-05-06T04:03:34.215Z,10.47
2023-05-06T04:06:01.981Z,10.52
2023-05-06T04:08:28.442Z,10.57
2023-05-06T04:10:56.033Z,10.61
2023-05-06T04:13:28.153Z,10.68
2023-05-06T04:15:58.325Z,10.65
2023-05-06T04:18:30.570Z,10.70
2023-05-06T04:21:04.976Z,10.65
2023-05-06T04:23:34.418Z,10.55
2023-05-06T04:26:01.398Z,10.57
2023-05-06T04:28:30.545Z,10.57
2023-05-06T04:30:57.024Z,10.60
2023-05-06T04:33:32.035Z,10.63
2023-05-06T04:36:01.690Z,10.63
2023-05-06T04:38:32.198Z,10.65
2023-05-06T04:40:59.533Z,10.65
2023-05-06T04:43:29.140Z,10.66
2023-05-06T04:46:03.914Z,10.72
2023-05-06T04:48:32.735Z,10.62
2023-05-06T04:51:00.491Z,10.62
2023-05-06T04:53:27.717Z,10.63
2023-05-06T04:55:55.584Z,10.71
2023-05-06T04:58:22.394Z,10.71
2023-05-06T05:00:48.865Z,10.79
2023-05-06T05:03:15.491Z,10.79
2023-05-06T05:05:42.225Z,10.79
2023-05-06T05:08:15.441Z,10.83
2023-05-06T05:10:43.478Z,10.95
2023-05-06T05:13:13.759Z,10.96
2023-05-06T05:15:40.819Z,10.99
2023-05-06T05:18:07.733Z,11.02
2023-05-06T05:20:34.755Z,11.04
2023-05-06T05:23:04.894Z,11.01
2023-05-06T05:25:32.393Z,10.97
2023-05-06T05:27:59.063Z,11.04
2023-05-06T05:30:26.095Z,11.01
2023-05-06T05:32:53.450Z,11.05
2023-05-06T05:35:20.098Z,11.17
2023-05-06T05:37:48.228Z,11.20
2023-05-06T05:40:15.638Z,11.18
2023-05-06T05:42:43.202Z,11.18
2023-05-06T05:45:18.937Z,11.22
2023-05-06T05:47:45.715Z,11.20
2023-05-06T05:50:13.056Z,11.27
2023-05-06T05:52:39.971Z,11.41
2023-05-06T05:55:07.236Z,11.50
2023-05-06T05:57:34.375Z,11.56
2023-05-06T06:00:00.794Z,11.52
2023-05-06T06:02:27.281Z,11.67
2023-05-06T06:04:53.782Z,11.65
2023-05-06T06:07:20.576Z,11.65
2023-05-06T06:09:47.070Z,11.74
2023-05-06T06:12:15.510Z,11.79
2023-05-06T06:14:44.738Z,11.86
2023-05-06T06:17:11.686Z,11.78
2023-05-06T06:19:38.407Z,11.82
2023-05-06T06:22:05.059Z,11.78
2023-05-06T06:24:34.792Z,11.91
2023-05-06T06:27:02.257Z,11.95
2023-05-06T06:29:28.741Z,12.08
2023-05-06T06:31:58.281Z,12.09
2023-05-06T06:34:25.346Z,12.14
2023-05-06T06:36:51.778Z,12.22
2023-05-06T06:39:18.272Z,12.18
2023-05-06T06:41:44.709Z,12.04
2023-05-06T06:44:11.257Z,12.02
2023-05-06T06:46:38.615Z,12.03
2023-05-06T06:49:05.040Z,12.18
2023-05-06T06:51:31.881Z,12.26
2023-05-06T06:53:58.279Z,12.36
2023-05-06T06:56:24.730Z,12.46
2023-05-06T06:58:53.299Z,12.49
2023-05-06T07:01:20.051Z,12.56
2023-05-06T07:03:46.779Z,12.73
2023-05-06T07:06:13.395Z,12.79
2023-05-06T07:08:39.810Z,12.83
2023-05-06T07:11:06.247Z,12.79
2023-05-06T07:13:32.636Z,12.63
2023-05-06T07:15:59.139Z,12.71
2023-05-06T07:18:25.671Z,12.65
2023-05-06T07:20:52.107Z,12.72
2023-05-06T07:23:18.486Z,12.76
2023-05-06T07:25:44.906Z,12.80
2023-05-06T07:28:11.424Z,12.90
2023-05-06T07:30:38.692Z,12.91
2023-05-06T07:33:05.574Z,12.79
2023-05-06T07:35:32.261Z,12.89
2023-05-06T07:37:58.937Z,12.91
2023-05-06T07:40:25.856Z,12.95
2023-05-06T07:42:52.291Z,12.88
2023-05-06T07:45:19.654Z,12.95
2023-05-06T07:47:46.365Z,13.12
2023-05-06T07:50:12.990Z,13.24
2023-05-06T07:52:39.460Z,13.25
2023-05-06T07:55:09.175Z,13.22
2023-05-06T07:57:36.378Z,13.19
2023-05-06T08:00:03.377Z,13.30
2023-05-06T08:02:44.467Z,13.49
2023-05-06T08:05:11.543Z,13.54
2023-05-06T08:07:40.919Z,13.44
2023-05-06T08:10:08.484Z,13.24
2023-05-06T08:12:36.253Z,13.21
2023-05-06T08:15:03.788Z,13.26
2023-05-06T08:17:30.207Z,13.34
2023-05-06T08:19:56.812Z,13.43
2023-05-06T08:22:23.209Z,13.41
2023-05-06T08:24:49.637Z,13.53
2023-05-06T08:27:16.313Z,13.49
2023-05-06T08:29:43.025Z,13.37
2023-05-06T08:32:09.516Z,13.38
2023-05-06T08:34:36.024Z,13.30
2023-05-06T08:37:03.611Z,13.47
2023-05-06T08:39:31.285Z,13.56
2023-05-06T08:42:00.670Z,13.61
2023-05-06T08:44:28.042Z,13.52
2023-05-06T08:46:54.650Z,13.66
2023-05-06T08:49:21.285Z,13.80
2023-05-06T08:51:52.164Z,13.89
2023-05-06T08:54:18.982Z,13.91
2023-05-06T08:56:51.502Z,13.95
2023-05-06T08:59:23.469Z,13.76
2023-05-06T09:01:49.986Z,13.94
2023-05-06T09:04:18.375Z,14.02
2023-05-06T09:06:44.824Z,14.12
2023-05-06T09:09:13.183Z,14.07
2023-05-06T09:11:39.644Z,14.02
2023-05-06T09:14:09.494Z,14.20
2023-05-06T09:16:36.081Z,14.37
2023-05-06T09:19:02.944Z,14.29
2023-05-06T09:21:39.863Z,14.35
2023-05-06T09:24:08.208Z,14.27
2023-05-06T09:26:36.416Z,14.09
2023-05-06T09:29:04.972Z,14.07
2023-05-06T09:31:31.960Z,14.09
2023-05-06T09:34:00.008Z,14.20
2023-05-06T09:36:28.160Z,14.33
2023-05-06T09:38:55.902Z,14.45
2023-05-06T09:41:25.220Z,14.50
2023-05-06T09:43:53.583Z,14.36
2023-05-06T09:46:24.071Z,14.37
2023-05-06T09:48:52.038Z,14.20
2023-05-06T09:51:19.341Z,14.28
2023-05-06T09:53:46.870Z,14.48
2023-05-06T09:56:14.730Z,14.52
2023-05-06T09:58:41.898Z,14.59
2023-05-06T10:01:09.480Z,14.47
2023-05-06T10:03:36.423Z,14.48
2023-05-06T10:06:05.988Z,14.46
2023-05-06T10:08:36.061Z,14.48
2023-05-06T10:11:02.563Z,14.55
2023-05-06T10:13:29.638Z,14.63
2023-05-06T10:15:56.640Z,14.46
2023-05-06T10:18:26.360Z,14.58
2023-05-06T10:20:54.037Z,14.63
2023-05-06T10:23:35.480Z,14.58
2023-05-06T10:26:07.821Z,14.84
2023-05-06T10:28:42.480Z,15.01
2023-05-06T10:31:13.795Z,15.02
2023-05-06T10:33:42.609Z,15.18
2023-05-06T10:36:22.551Z,15.25
2023-05-06T10:38:54.809Z,15.41
2023-05-06T10:41:22.290Z,15.44
2023-05-06T10:43:57.046Z,15.36
2023-05-06T10:46:26.063Z,15.28
2023-05-06T10:49:04.661Z,15.12
2023-05-06T10:51:35.100Z,15.19
2023-05-06T10:54:09.302Z,15.42
2023-05-06T10:57:00.174Z,15.37
2023-05-06T10:59:29.905Z,15.50
2023-05-06T11:02:08.828Z,15.58
2023-05-06T11:04:35.451Z,15.68
2023-05-06T11:07:09.595Z,15.88
2023-05-06T11:10:07.259Z,15.90
2023-05-06T11:12:55.909Z,15.84
2023-05-06T11:15:46.447Z,16.02
2023-05-06T11:18:25.111Z,16.08
2023-05-06T11:21:02.415Z,16.20
2023-05-06T11:23:49.298Z,16.31
2023-05-06T11:26:16.129Z,16.44
2023-05-06T11:28:44.352Z,16.67
2023-05-06T11:31:13.017Z,16.79
2023-05-06T11:33:46.569Z,16.67
2023-05-06T11:36:17.639Z,16.83
2023-05-06T11:38:45.935Z,16.87
2023-05-06T11:41:13.245Z,16.87
2023-05-06T11:43:40.149Z,16.55
2023-05-06T11:46:06.887Z,16.49
2023-05-06T11:48:33.286Z,16.48
2023-05-06T11:51:00.631Z,16.24
2023-05-06T11:53:27.048Z,15.92
2023-05-06T11:55:53.990Z,16.22
2023-05-06T11:58:27.616Z,16.32
2023-05-06T12:00:59.281Z,16.18
2023-05-06T12:03:27.676Z,16.36
2023-05-06T12:05:55.207Z,16.41
2023-05-06T12:08:32.996Z,16.39
2023-05-06T12:11:02.105Z,16.55
2023-05-06T12:13:29.559Z,16.55
2023-05-06T12:15:59.375Z,16.57
2023-05-06T12:18:26.535Z,16.80
2023-05-06T12:20:54.738Z,17.13
2023-05-06T12:23:24.530Z,17.21
2023-05-06T12:26:05.935Z,17.37
2023-05-06T12:28:35.218Z,17.59
2023-05-06T12:31:18.166Z,17.14
2023-05-06T12:33:51.261Z,16.99
2023-05-06T12:36:18.823Z,17.01
2023-05-06T12:38:52.427Z,16.84
2023-05-06T12:41:23.412Z,17.19
2023-05-06T12:43:50.268Z,17.58
2023-05-06T12:46:17.150Z,17.80
2023-05-06T12:48:59.676Z,17.77
2023-05-06T12:51:27.156Z,17.95
2023-05-06T12:53:54.145Z,18.08
2023-05-06T12:56:23.736Z,18.48
2023-05-06T12:59:02.205Z,18.48
2023-05-06T13:01:28.787Z,18.42
2023-05-06T13:03:57.257Z,18.33
2023-05-06T13:06:24.591Z,18.41
2023-05-06T13:08:51.198Z,18.78
2023-05-06T13:11:17.606Z,18.35
2023-05-06T13:13:44.055Z,18.29
2023-05-06T13:16:10.753Z,18.31
2023-05-06T13:18:37.409Z,18.37
2023-05-06T13:21:04.086Z,18.47
2023-05-06T13:23:31.797Z,18.70
2023-05-06T13:26:04.633Z,18.40
2023-05-06T13:28:33.039Z,18.47
2023-05-06T13:30:59.907Z,18.60
2023-05-06T13:33:26.528Z,18.84
2023-05-06T13:35:53.122Z,18.85
2023-05-06T13:38:19.562Z,18.94
2023-05-06T13:40:48.652Z,18.60
2023-05-06T13:43:15.598Z,18.57
2023-05-06T13:45:43.631Z,18.65
2023-05-06T13:48:10.122Z,18.62
2023-05-06T13:50:37.152Z,18.59
2023-05-06T13:53:04.302Z,18.13
2023-05-06T13:55:30.866Z,18.42
2023-05-06T13:57:57.341Z,18.44
2023-05-06T14:00:23.761Z,18.37
2023-05-06T14:02:50.320Z,18.65
2023-05-06T14:05:17.030Z,18.74
2023-05-06T14:07:43.502Z,18.72
2023-05-06T14:10:10.057Z,18.82
2023-05-06T14:12:36.527Z,18.67
2023-05-06T14:15:05.207Z,18.72
2023-05-06T14:17:31.694Z,18.94
2023-05-06T14:19:58.137Z,19.38
2023-05-06T14:22:25.018Z,19.21
2023-05-06T14:24:51.464Z,19.15
2023-05-06T14:27:18.024Z,19.39
2023-05-06T14:29:46.010Z,19.52
2023-05-06T14:32:13.122Z,19.68
2023-05-06T14:34:39.578Z,19.76
2023-05-06T14:37:05.982Z,19.66
2023-05-06T14:39:32.698Z,19.52
2023-05-06T14:41:59.373Z,19.60
2023-05-06T14:44:25.861Z,19.07
2023-05-06T14:46:52.334Z,19.26
2023-05-06T14:49:18.830Z,19.53
2023-05-06T14:51:45.775Z,19.62
2023-05-06T14:54:12.182Z,19.60
2023-05-06T14:56:38.630Z,19.68
2023-05-06T14:59:05.019Z,19.59
2023-05-06T15:01:33.407Z,19.40
2023-05-06T15:03:59.976Z,19.23
2023-05-06T15:06:27.211Z,19.09
2023-05-06T15:08:53.614Z,19.11
2023-05-06T15:11:20.078Z,19.16
2023-05-06T15:13:46.502Z,19.19
2023-05-06T15:16:13.010Z,19.05
2023-05-06T15:18:41.595Z,18.88
2023-05-06T15:21:09.490Z,19.09
2023-05-06T15:23:35.992Z,19.17
2023-05-06T15:26:02.480Z,18.91
2023-05-06T15:28:29.203Z,18.80
2023-05-06T15:30:55.911Z,18.88
2023-05-06T15:33:22.438Z,18.69
2023-05-06T15:35:48.900Z,18.57
2023-05-06T15:38:15.384Z,18.51
2023-05-06T15:40:49.886Z,18.60
2023-05-06T15:43:22.947Z,18.37
2023-05-06T15:45:50.381Z,18.19
2023-05-06T15:48:16.814Z,18.36
2023-05-06T15:50:43.204Z,18.46
2023-05-06T15:53:09.633Z,18.58
2023-05-06T15:55:44.470Z,18.63
2023-05-06T15:58:13.263Z,18.64
2023-05-06T16:00:39.737Z,18.57
2023-05-06T16:03:09.852Z,18.61
2023-05-06T16:05:38.335Z,18.68
2023-05-06T16:08:04.973Z,18.78
2023-05-06T16:10:31.420Z,18.84
2023-05-06T16:12:58.235Z,18.86
2023-05-06T16:15:24.726Z,18.75
2023-05-06T16:17:51.183Z,18.75
2023-05-06T16:20:17.717Z,18.87
2023-05-06T16:22:49.701Z,18.84
2023-05-06T16:25:16.314Z,18.86
2023-05-06T16:27:42.707Z,19.05
2023-05-06T16:30:09.775Z,19.01
2023-05-06T16:32:36.406Z,18.83
2023-05-06T16:35:02.906Z,18.69
2023-05-06T16:37:29.272Z,18.52
2023-05-06T16:39:56.070Z,18.39
2023-05-06T16:42:22.560Z,18.34
2023-05-06T16:44:49.015Z,18.09
2023-05-06T16:47:15.931Z,18.09
2023-05-06T16:49:42.482Z,17.98
2023-05-06T16:52:08.868Z,17.95
2023-05-06T16:54:35.331Z,17.84
2023-05-06T16:57:03.300Z,17.81
2023-05-06T16:59:30.036Z,17.73
2023-05-06T17:01:56.474Z,17.85
2023-05-06T17:04:24.719Z,17.83
2023-05-06T17:06:51.242Z,17.90
2023-05-06T17:09:17.626Z,17.83
2023-05-06T17:11:44.066Z,17.79
2023-05-06T17:14:11.164Z,17.73
2023-05-06T17:16:43.000Z,17.66
2023-05-06T17:19:09.511Z,17.44
2023-05-06T17:21:35.913Z,17.37
2023-05-06T17:24:02.503Z,17.39
2023-05-06T17:26:31.749Z,17.16
2023-05-06T17:28:59.951Z,17.03
2023-05-06T17:31:26.495Z,17.03
2023-05-06T17:33:53.171Z,16.98
2023-05-06T17:36:20.790Z,16.91
2023-05-06T17:38:48.105Z,16.90
2023-05-06T17:41:15.437Z,16.85
2023-05-06T17:43:43.249Z,16.63
2023-05-06T17:46:09.775Z,16.59
2023-05-06T17:48:36.255Z,16.33
2023-05-06T17:51:03.277Z,16.23
2023-05-06T17:53:30.865Z,16.21
2023-05-06T17:55:57.542Z,16.15
2023-05-06T17:58:23.957Z,16.10
2023-05-06T18:00:50.461Z,15.97
2023-05-06T18:03:17.044Z,15.93
2023-05-06T18:05:43.524Z,15.79
2023-05-06T18:08:09.935Z,15.69
2023-05-06T18:10:36.454Z,15.51
2023-05-06T18:13:03.645Z,15.42
2023-05-06T18:15:30.284Z,15.17
2023-05-06T18:17:56.906Z,15.08
2023-05-06T18:20:23.870Z,14.82
2023-05-06T18:22:50.329Z,14.66
2023-05-06T18:25:16.782Z,14.54
2023-05-06T18:27:43.454Z,14.44
2023-05-06T18:30:10.248Z,14.38
2023-05-06T18:32:36.794Z,14.27
2023-05-06T18:35:03.503Z,14.08
2023-05-06T18:37:30.153Z,13.83
2023-05-06T18:39:56.634Z,13.69
2023-05-06T18:42:23.551Z,13.58
2023-05-06T18:44:52.972Z,13.52
2023-05-06T18:47:19.750Z,13.41
2023-05-06T18:49:46.326Z,13.28
2023-05-06T18:52:14.868Z,13.16
2023-05-06T18:54:41.920Z,13.13
2023-05-06T18:57:08.408Z,13.00
2023-05-06T18:59:34.909Z,12.94
2023-05-06T19:02:02.332Z,12.84
2023-05-06T19:04:30.341Z,12.75
2023-05-06T19:06:56.809Z,12.61
2023-05-06T19:09:23.534Z,12.61
2023-05-06T19:11:49.980Z,12.63
2023-05-06T19:14:16.371Z,12.50
2023-05-06T19:16:42.854Z,12.54
2023-05-06T19:19:09.341Z,12.45
2023-05-06T19:21:38.264Z,12.31
2023-05-06T19:24:05.742Z,12.19
2023-05-06T19:26:32.527Z,12.25
2023-05-06T19:28:59.078Z,12.15
2023-05-06T19:31:26.168Z,12.24
2023-05-06T19:33:52.556Z,12.23
2023-05-06T19:36:19.000Z,12.19
2023-05-06T19:38:45.463Z,12.13
2023-05-06T19:41:11.982Z,12.18
2023-05-06T19:43:43.058Z,12.07
2023-05-06T19:46:11.286Z,12.07
2023-05-06T19:48:38.988Z,12.05
2023-05-06T19:51:06.425Z,11.90
2023-05-06T19:53:33.989Z,11.92
2023-05-06T19:56:11.522Z,11.90
2023-05-06T19:58:38.752Z,11.93
2023-05-06T20:01:05.209Z,11.90
2023-05-06T20:03:32.669Z,11.85
2023-05-06T20:05:59.414Z,11.87
2023-05-06T20:08:26.251Z,11.72
2023-05-06T20:10:53.263Z,11.75
2023-05-06T20:13:19.747Z,11.62
2023-05-06T20:15:46.845Z,11.60
2023-05-06T20:18:13.337Z,11.60
2023-05-06T20:20:40.194Z,11.57
2023-05-06T20:23:06.829Z,11.60
2023-05-06T20:25:33.972Z,11.65
2023-05-06T20:28:00.408Z,11.67
2023-05-06T20:30:27.071Z,11.65
2023-05-06T20:32:53.785Z,11.64
2023-05-06T20:35:20.500Z,11.57
2023-05-06T20:37:47.155Z,11.58
2023-05-06T20:40:14.177Z,11.61
2023-05-06T20:46:21.917Z,11.62
2023-05-06T20:48:48.624Z,11.45
2023-05-06T20:51:15.654Z,11.49
2023-05-06T20:53:42.783Z,11.40
2023-05-06T20:56:24.660Z,11.40
2023-05-06T20:58:52.726Z,11.54
2023-05-06T21:01:20.443Z,11.45
2023-05-06T21:03:47.142Z,11.32
2023-05-06T21:06:14.686Z,11.26
2023-05-06T21:08:41.177Z,11.28
2023-05-06T21:11:07.621Z,11.27
2023-05-06T21:13:33.987Z,11.30
2023-05-06T21:16:03.206Z,11.32
2023-05-06T21:18:30.150Z,11.43
2023-05-06T21:20:56.681Z,11.30
2023-05-06T21:23:23.085Z,11.16
2023-05-06T21:25:49.511Z,11.08
2023-05-06T21:28:15.896Z,11.01
2023-05-06T21:30:42.435Z,11.03
2023-05-06T21:33:10.986Z,11.07
2023-05-06T21:35:37.755Z,11.14
2023-05-06T21:38:04.882Z,11.18
2023-05-06T21:40:31.350Z,11.22
2023-05-06T21:42:57.793Z,11.20
2023-05-06T21:45:24.266Z,11.19
2023-05-06T21:47:50.854Z,11.28
2023-05-06T21:50:17.249Z,11.22
2023-05-06T21:52:43.764Z,11.21
2023-05-06T21:55:11.247Z,11.17
2023-05-06T21:57:38.634Z,11.19
2023-05-06T22:00:11.794Z,11.11
2023-05-06T22:02:39.806Z,11.04
2023-05-06T22:05:08.240Z,11.04
2023-05-06T22:07:35.779Z,10.99
2023-05-06T22:10:03.127Z,10.97
2023-05-06T22:12:30.090Z,11.11
2023-05-06T22:14:56.773Z,11.18
2023-05-06T22:17:24.048Z,11.03
2023-05-06T22:19:51.464Z,10.89
2023-05-06T22:22:18.419Z,11.01
2023-05-06T22:24:44.906Z,10.87
2023-05-06T22:27:11.366Z,10.87
2023-05-06T22:29:37.781Z,10.92
2023-05-06T22:32:04.777Z,10.88
2023-05-06T22:34:32.101Z,10.91
2023-05-06T22:37:00.461Z,10.87
2023-05-06T22:39:27.452Z,10.76
2023-05-06T22:41:54.394Z,10.72
2023-05-06T22:44:21.244Z,10.70
2023-05-06T22:46:47.687Z,10.81
2023-05-06T22:49:15.834Z,10.89
2023-05-06T22:51:42.297Z,10.84
2023-05-06T22:54:08.737Z,10.82
2023-05-06T22:56:35.169Z,10.85
2023-05-06T22:59:01.732Z,10.76
2023-05-06T23:01:32.187Z,10.76
2023-05-06T23:03:59.841Z,10.76
2023-05-06T23:06:31.037Z,10.79
2023-05-06T23:08:57.757Z,10.72
2023-05-06T23:11:24.341Z,10.64
2023-05-06T23:13:50.828Z,10.64
2023-05-06T23:16:17.271Z,10.67
2023-05-06T23:18:43.782Z,10.62
2023-05-06T23:21:12.353Z,10.65
2023-05-06T23:23:38.861Z,10.73
2023-05-06T23:26:05.323Z,10.54
2023-05-06T23:28:32.021Z,10.59
2023-05-06T23:30:58.561Z,10.61
2023-05-06T23:33:25.016Z,10.64
2023-05-06T23:35:51.410Z,10.60
2023-05-06T23:38:17.808Z,10.64
2023-05-06T23:40:44.685Z,10.60
2023-05-06T23:43:11.408Z,10.63
2023-05-06T23:45:37.878Z,10.69
2023-05-06T23:48:04.998Z,10.67
2023-05-06T23:50:31.588Z,10.55
2023-05-06T23:52:58.068Z,10.58
2023-05-06T23:55:26.202Z,10.52
2023-05-06T23:57:52.689Z,10.43
